Time;durP1;ratioP1;P1;durP2;ratioP2;P2;SDS_P1;SDS_P2;PMS_P1;PMS_P2;Temp;Humidity;BMP_temperature;BMP_pressure;BME280_temperature;BME280_humidity;BME280_pressure;Samples;Min_cycle;Max_cycle;Signal;HPM_P1;HPM_P2
2022/03/04 00:01:04;;;;;;;26.38;14.55;;;1.60;99.90;;;;;;4945341;28;20111;-50
2022/03/04 00:03:30;;;;;;;30.85;14.70;;;1.60;99.90;;;;;;4945000;28;20098;-51
2022/03/04 00:05:55;;;;;;;26.88;14.90;;;1.50;99.90;;;;;;4946672;28;20057;-55
2022/03/04 00:08:21;;;;;;;24.42;14.70;;;1.50;99.90;;;;;;4944771;28;20062;-49
2022/03/04 00:10:47;;;;;;;25.88;14.18;;;1.50;99.90;;;;;;4945531;28;20042;-52
2022/03/04 00:13:13;;;;;;;26.65;14.65;;;1.50;99.90;;;;;;4941474;28;20050;-50
2022/03/04 00:15:40;;;;;;;26.60;14.30;;;1.40;99.90;;;;;;4944262;28;20043;-53
2022/03/04 00:18:05;;;;;;;23.92;14.45;;;1.40;99.90;;;;;;4944207;28;20134;-52
2022/03/04 00:20:32;;;;;;;25.63;14.98;;;1.40;99.90;;;;;;4945254;28;20233;-53
2022/03/04 00:22:57;;;;;;;24.17;14.18;;;1.30;99.90;;;;;;4943826;28;20050;-50
2022/03/04 00:25:23;;;;;;;27.17;14.55;;;1.30;99.90;;;;;;4945748;28;20093;-49
2022/03/04 00:27:49;;;;;;;25.70;14.43;;;1.30;99.90;;;;;;4944506;28;20106;-52
2022/03/04 00:30:15;;;;;;;25.08;14.90;;;1.30;99.90;;;;;;4946340;28;20069;-49
2022/03/04 00:32:41;;;;;;;26.83;15.30;;;1.30;99.90;;;;;;4924168;28;20046;-52
2022/03/04 00:35:08;;;;;;;25.08;14.18;;;1.20;99.90;;;;;;4941992;28;20051;-54
2022/03/04 00:37:33;;;;;;;24.05;14.32;;;1.20;99.90;;;;;;4943895;28;20047;-51
2022/03/04 00:39:59;;;;;;;25.45;14.45;;;1.20;99.90;;;;;;4942766;28;20058;-55
2022/03/04 00:42:27;;;;;;;24.85;13.98;;;1.20;99.90;;;;;;4943083;28;20078;-49
2022/03/04 00:44:54;;;;;;;24.88;15.27;;;1.20;99.90;;;;;;4943698;28;20133;-49
2022/03/04 00:47:19;;;;;;;25.30;15.05;;;1.20;99.90;;;;;;4944417;28;20135;-50
2022/03/04 00:49:45;;;;;;;28.48;14.77;;;1.10;99.90;;;;;;4938761;28;20043;-52
2022/03/04 00:52:11;;;;;;;27.95;15.32;;;1.10;99.90;;;;;;4939597;28;20047;-50
2022/03/04 00:54:37;;;;;;;29.85;16.05;;;1.10;99.90;;;;;;4943493;28;20047;-51
2022/03/04 00:57:03;;;;;;;26.60;14.52;;;1.10;99.90;;;;;;4945165;28;20046;-51
2022/03/04 00:59:29;;;;;;;23.25;14.07;;;1.10;99.90;;;;;;4926880;28;20779;-50
2022/03/04 01:01:55;;;;;;;26.77;15.57;;;1.00;99.90;;;;;;4942993;28;20052;-51
2022/03/04 01:04:21;;;;;;;27.17;14.95;;;1.00;99.90;;;;;;4942711;28;20039;-50
2022/03/04 01:06:47;;;;;;;26.52;15.43;;;1.00;99.90;;;;;;4928233;29;20531;-52
2022/03/04 01:09:12;;;;;;;26.25;14.65;;;1.00;99.90;;;;;;4943309;28;20035;-50
2022/03/04 01:11:38;;;;;;;25.80;15.68;;;0.90;99.90;;;;;;4942628;28;20048;-51
2022/03/04 01:14:05;;;;;;;27.25;15.38;;;0.90;99.90;;;;;;4943644;28;20101;-51
2022/03/04 01:16:31;;;;;;;28.33;15.70;;;0.80;99.90;;;;;;4944385;28;20053;-51
2022/03/04 01:18:57;;;;;;;28.75;15.40;;;0.80;99.90;;;;;;4943274;28;20047;-51
2022/03/04 01:21:23;;;;;;;29.02;15.70;;;0.80;99.90;;;;;;4944003;28;20087;-52
2022/03/04 01:23:49;;;;;;;27.83;15.23;;;0.80;99.90;;;;;;4948770;28;20446;-54
2022/03/04 01:26:15;;;;;;;30.38;16.58;;;0.70;99.90;;;;;;4941752;28;20070;-49
2022/03/04 01:28:41;;;;;;;29.10;16.45;;;0.70;99.90;;;;;;4943507;28;20051;-54
2022/03/04 01:31:09;;;;;;;27.33;15.77;;;0.70;99.90;;;;;;4941360;28;20460;-49
2022/03/04 01:33:35;;;;;;;28.58;15.65;;;0.70;99.90;;;;;;4942098;28;20039;-50
2022/03/04 01:36:01;;;;;;;32.83;17.55;;;0.60;99.90;;;;;;4944454;28;20891;-48
2022/03/04 01:38:28;;;;;;;27.70;15.60;;;0.60;99.90;;;;;;4944011;28;20047;-48
2022/03/04 01:40:53;;;;;;;27.42;16.02;;;0.60;99.90;;;;;;4946405;28;20522;-50
2022/03/04 01:43:19;;;;;;;27.58;16.08;;;0.60;99.90;;;;;;4945428;28;20072;-50
2022/03/04 01:45:45;;;;;;;29.17;16.67;;;0.60;99.90;;;;;;4942970;28;20079;-51
2022/03/04 01:48:12;;;;;;;29.02;16.13;;;0.60;99.90;;;;;;4926688;28;20138;-48
2022/03/04 01:50:38;;;;;;;29.92;16.27;;;0.60;99.90;;;;;;4942509;28;20421;-49
2022/03/04 01:53:04;;;;;;;29.67;17.02;;;0.60;99.90;;;;;;4941351;28;20104;-52
2022/03/04 01:55:30;;;;;;;32.47;17.08;;;0.60;99.90;;;;;;4943530;28;20095;-50
2022/03/04 01:57:56;;;;;;;31.45;17.80;;;0.60;99.90;;;;;;4944749;28;20081;-50
2022/03/04 02:00:22;;;;;;;33.13;17.80;;;0.60;99.90;;;;;;4942600;28;20509;-50
2022/03/04 02:02:48;;;;;;;34.67;17.20;;;0.60;99.90;;;;;;4941640;28;20560;-55
2022/03/04 02:05:16;;;;;;;31.45;17.90;;;0.60;99.90;;;;;;4943785;28;20055;-51
2022/03/04 02:07:42;;;;;;;30.35;16.75;;;0.60;99.90;;;;;;4941798;28;20126;-51
2022/03/04 02:10:09;;;;;;;32.53;16.67;;;0.60;99.90;;;;;;4945009;28;20397;-51
2022/03/04 02:12:36;;;;;;;31.17;16.90;;;0.60;99.90;;;;;;4942147;28;20087;-49
2022/03/04 02:15:03;;;;;;;34.38;17.10;;;0.60;99.90;;;;;;4932890;28;20055;-54
2022/03/04 02:17:29;;;;;;;33.05;18.02;;;0.50;99.90;;;;;;4941561;28;20043;-51
2022/03/04 02:19:55;;;;;;;30.33;17.60;;;0.50;99.90;;;;;;4940507;28;20050;-52
2022/03/04 02:22:21;;;;;;;34.35;17.83;;;0.50;99.90;;;;;;4943198;28;20047;-52
2022/03/04 02:24:47;;;;;;;30.50;17.73;;;0.50;99.90;;;;;;4938897;28;20114;-53
2022/03/04 02:27:13;;;;;;;36.88;18.58;;;0.50;99.90;;;;;;4941762;28;20042;-49
2022/03/04 02:29:38;;;;;;;27.88;16.38;;;0.50;99.90;;;;;;4941196;28;20051;-53
2022/03/04 02:32:05;;;;;;;29.90;16.42;;;0.50;99.90;;;;;;4943966;28;20622;-49
2022/03/04 02:34:30;;;;;;;32.67;17.20;;;0.40;99.90;;;;;;4941756;28;20121;-50
2022/03/04 02:36:57;;;;;;;34.00;17.27;;;0.40;99.90;;;;;;4941203;28;20039;-52
2022/03/04 02:39:23;;;;;;;34.72;17.98;;;0.40;99.90;;;;;;4940774;28;20054;-55
2022/03/04 02:41:49;;;;;;;34.88;17.70;;;0.40;99.90;;;;;;4943311;28;20051;-51
2022/03/04 02:44:15;;;;;;;33.25;17.48;;;0.40;99.90;;;;;;4940578;28;20051;-49
2022/03/04 02:46:41;;;;;;;30.25;16.75;;;0.40;99.90;;;;;;4943611;28;20063;-54
2022/03/04 02:49:10;;;;;;;35.20;17.40;;;0.40;99.90;;;;;;4943424;28;20044;-49
2022/03/04 02:51:36;;;;;;;31.65;17.70;;;0.40;99.90;;;;;;4943318;28;20071;-54
2022/03/04 02:54:02;;;;;;;32.95;16.88;;;0.40;99.90;;;;;;4942646;28;20082;-51
2022/03/04 02:56:28;;;;;;;31.83;17.40;;;0.40;99.90;;;;;;4942309;28;20134;-51
2022/03/04 02:58:54;;;;;;;32.40;17.42;;;0.30;99.90;;;;;;4946527;28;21218;-49
2022/03/04 03:01:20;;;;;;;33.67;17.17;;;0.30;99.90;;;;;;4941209;28;20051;-52
2022/03/04 03:03:46;;;;;;;32.70;17.20;;;0.30;99.90;;;;;;4941807;28;20065;-48
2022/03/04 03:06:11;;;;;;;30.38;16.50;;;0.30;99.90;;;;;;4925659;28;20047;-50
2022/03/04 03:08:37;;;;;;;31.42;17.08;;;0.30;99.90;;;;;;4942360;28;20045;-49
2022/03/04 03:11:03;;;;;;;28.58;16.30;;;0.30;99.90;;;;;;4948000;28;20068;-51
2022/03/04 03:13:29;;;;;;;29.92;16.38;;;0.20;99.90;;;;;;4942596;28;20421;-49
2022/03/04 03:15:55;;;;;;;29.77;16.15;;;0.20;99.90;;;;;;4942317;28;20097;-51
2022/03/04 03:18:21;;;;;;;31.95;17.73;;;0.30;99.90;;;;;;4941286;28;20054;-51
2022/03/04 03:20:46;;;;;;;29.75;16.95;;;0.20;99.90;;;;;;4944310;28;20112;-54
2022/03/04 03:23:12;;;;;;;31.63;17.48;;;0.20;99.90;;;;;;4943077;28;20061;-49
2022/03/04 03:25:38;;;;;;;31.38;16.80;;;0.20;99.90;;;;;;4944195;28;20047;-48
2022/03/04 03:28:05;;;;;;;32.78;16.75;;;0.20;99.90;;;;;;4946690;28;20373;-49
2022/03/04 03:30:31;;;;;;;32.95;18.10;;;0.20;99.90;;;;;;4946995;28;20105;-50
2022/03/04 03:32:57;;;;;;;28.15;16.65;;;0.10;99.90;;;;;;4945333;28;20047;-50
2022/03/04 03:35:23;;;;;;;31.83;16.77;;;0.10;99.90;;;;;;4945802;28;20062;-50
2022/03/04 03:37:49;;;;;;;29.75;16.30;;;0.10;99.90;;;;;;4944449;28;20062;-49
2022/03/04 03:40:15;;;;;;;26.08;15.77;;;0.10;99.90;;;;;;4946664;28;20057;-52
2022/03/04 03:42:42;;;;;;;30.55;16.98;;;0.10;99.90;;;;;;4946140;28;20050;-52
2022/03/04 03:45:10;;;;;;;32.05;16.70;;;0.00;99.90;;;;;;4943390;28;20054;-50
2022/03/04 03:47:38;;;;;;;32.60;16.85;;;0.10;99.90;;;;;;4945335;28;20445;-50
2022/03/04 03:50:07;;;;;;;31.83;17.50;;;0.00;99.90;;;;;;4943590;28;20043;-51
2022/03/04 03:52:32;;;;;;;34.80;17.55;;;0.00;99.90;;;;;;4945272;28;20119;-50
2022/03/04 03:54:59;;;;;;;32.53;17.15;;;0.00;99.90;;;;;;4941761;28;20122;-52
2022/03/04 03:57:25;;;;;;;32.20;17.00;;;0.00;99.90;;;;;;4945182;28;20469;-51
2022/03/04 03:59:51;;;;;;;32.17;17.08;;;-0.10;99.90;;;;;;4944313;28;20053;-50
2022/03/04 04:02:17;;;;;;;34.85;17.67;;;-0.10;99.90;;;;;;4958196;28;20421;-50
2022/03/04 04:04:44;;;;;;;33.63;17.90;;;-0.10;99.90;;;;;;4945348;28;20047;-54
2022/03/04 04:07:12;;;;;;;36.08;17.88;;;-0.20;99.90;;;;;;4951614;28;20044;-50
2022/03/04 04:09:38;;;;;;;33.95;17.25;;;-0.20;99.90;;;;;;4944177;28;20046;-51
2022/03/04 04:12:04;;;;;;;34.40;17.98;;;-0.20;99.90;;;;;;4927883;28;20114;-49
2022/03/04 04:14:31;;;;;;;33.08;17.13;;;-0.20;99.90;;;;;;4940738;28;20043;-52
2022/03/04 04:16:57;;;;;;;33.28;17.88;;;-0.30;99.90;;;;;;4943855;28;20057;-51
2022/03/04 04:19:23;;;;;;;37.47;18.85;;;-0.30;99.90;;;;;;4934470;28;20078;-52
2022/03/04 04:21:50;;;;;;;37.90;17.65;;;-0.30;99.90;;;;;;4944277;28;20050;-48
2022/03/04 04:24:17;;;;;;;36.05;17.48;;;-0.50;99.90;;;;;;4945414;28;20047;-49
2022/03/04 04:26:43;;;;;;;33.22;17.40;;;-0.40;99.90;;;;;;4942888;28;20047;-49
2022/03/04 04:29:09;;;;;;;35.42;18.30;;;-0.40;99.90;;;;;;4944512;28;20055;-52
2022/03/04 04:31:35;;;;;;;35.80;18.25;;;-0.40;99.90;;;;;;4949707;28;20118;-50
2022/03/04 04:34:02;;;;;;;34.65;18.23;;;-0.40;99.90;;;;;;4943940;28;20051;-48
2022/03/04 04:36:28;;;;;;;33.78;17.80;;;-0.50;99.90;;;;;;4944501;28;20630;-51
2022/03/04 04:38:55;;;;;;;36.50;18.25;;;-0.50;99.90;;;;;;4950439;28;20055;-50
2022/03/04 04:41:21;;;;;;;36.88;19.00;;;-0.50;99.90;;;;;;4942587;28;20050;-53
2022/03/04 04:43:47;;;;;;;41.28;19.45;;;-0.50;99.90;;;;;;4942063;28;20051;-52
2022/03/04 04:46:13;;;;;;;37.95;18.00;;;-0.50;99.90;;;;;;4944532;28;20055;-51
2022/03/04 04:48:39;;;;;;;39.92;20.45;;;-0.60;99.90;;;;;;4942717;28;20504;-52
2022/03/04 04:51:05;;;;;;;37.67;19.02;;;-0.60;99.90;;;;;;4944729;28;20043;-52
2022/03/04 04:53:32;;;;;;;40.78;19.88;;;-0.60;99.90;;;;;;4940904;28;20070;-49
2022/03/04 04:55:58;;;;;;;42.17;20.55;;;-0.70;99.90;;;;;;4945720;28;20058;-53
2022/03/04 04:58:24;;;;;;;39.08;19.90;;;-0.70;99.90;;;;;;4943799;28;20058;-49
2022/03/04 05:00:53;;;;;;;38.95;20.10;;;-0.70;99.90;;;;;;4944678;28;20453;-50
2022/03/04 05:03:23;;;;;;;43.80;20.27;;;-0.70;99.90;;;;;;4942435;28;20114;-52
2022/03/04 05:05:50;;;;;;;40.03;19.52;;;-0.70;99.90;;;;;;4946216;28;20051;-48
2022/03/04 05:08:17;;;;;;;42.72;20.42;;;-0.70;99.90;;;;;;4943124;28;20051;-48
2022/03/04 05:10:43;;;;;;;39.35;20.52;;;-0.70;99.90;;;;;;4942989;28;20105;-51
2022/03/04 05:13:09;;;;;;;40.78;19.88;;;-0.70;99.90;;;;;;4944691;28;20461;-51
2022/03/04 05:15:35;;;;;;;37.67;19.42;;;-0.70;99.90;;;;;;4943381;28;20047;-55
2022/03/04 05:18:01;;;;;;;41.90;20.67;;;-0.60;99.90;;;;;;4939524;28;20043;-51
2022/03/04 05:20:27;;;;;;;39.15;19.48;;;-0.60;99.90;;;;;;4942170;28;20054;-51
2022/03/04 05:22:53;;;;;;;38.47;20.23;;;-0.60;99.90;;;;;;4943675;28;20528;-50
2022/03/04 05:25:20;;;;;;;44.47;19.80;;;-0.60;99.90;;;;;;4942845;28;20150;-50
2022/03/04 05:27:46;;;;;;;38.35;19.50;;;-0.60;99.90;;;;;;4935776;28;20074;-49
2022/03/04 05:30:12;;;;;;;38.33;19.88;;;-0.60;99.90;;;;;;4941455;28;20417;-48
2022/03/04 05:32:38;;;;;;;42.40;21.40;;;-0.60;99.90;;;;;;4941537;28;20051;-54
2022/03/04 05:35:05;;;;;;;40.70;20.83;;;-0.70;99.90;;;;;;4942069;28;20051;-48
2022/03/04 05:37:31;;;;;;;42.00;20.00;;;-0.60;99.90;;;;;;4942591;28;20058;-49
2022/03/04 05:39:57;;;;;;;42.30;20.30;;;-0.70;99.90;;;;;;4941919;28;20051;-50
2022/03/04 05:42:23;;;;;;;42.60;20.83;;;-0.60;99.90;;;;;;4943257;28;20107;-51
2022/03/04 05:44:49;;;;;;;40.45;20.52;;;-0.70;99.90;;;;;;4941043;28;20465;-52
2022/03/04 05:47:15;;;;;;;41.85;20.80;;;-0.70;99.90;;;;;;4942825;28;20109;-53
2022/03/04 05:49:41;;;;;;;42.63;21.55;;;-0.60;99.90;;;;;;4941054;28;20094;-53
2022/03/04 05:52:07;;;;;;;37.42;20.17;;;-0.70;99.90;;;;;;4943119;28;20054;-51
2022/03/04 05:54:33;;;;;;;42.58;20.60;;;-0.60;99.90;;;;;;4941552;28;20705;-52
2022/03/04 05:56:59;;;;;;;39.42;20.15;;;-0.70;99.90;;;;;;4944125;28;20047;-49
2022/03/04 05:59:25;;;;;;;41.40;21.05;;;-0.70;99.90;;;;;;4940366;28;20193;-52
2022/03/04 06:01:51;;;;;;;41.90;21.10;;;-0.70;99.90;;;;;;4944836;28;20039;-50
2022/03/04 06:04:17;;;;;;;43.85;20.05;;;-0.70;99.90;;;;;;4944418;28;20133;-49
2022/03/04 06:06:43;;;;;;;41.72;20.25;;;-0.70;99.90;;;;;;4943443;28;20047;-48
2022/03/04 06:09:10;;;;;;;38.40;20.77;;;-0.70;99.90;;;;;;4942493;28;20047;-51
2022/03/04 06:11:36;;;;;;;40.00;21.35;;;-0.70;99.90;;;;;;4943253;28;20043;-51
2022/03/04 06:14:02;;;;;;;43.92;21.25;;;-0.70;99.90;;;;;;4942261;28;20062;-52
2022/03/04 06:16:28;;;;;;;40.60;20.42;;;-0.70;99.90;;;;;;4940885;28;20505;-51
2022/03/04 06:18:54;;;;;;;38.45;18.98;;;-0.70;99.90;;;;;;4939208;28;20051;-51
2022/03/04 06:21:20;;;;;;;38.53;19.52;;;-0.70;99.90;;;;;;4940745;28;20062;-52
2022/03/04 06:23:46;;;;;;;40.08;21.13;;;-0.70;99.90;;;;;;4939335;28;20455;-50
2022/03/04 06:26:12;;;;;;;38.50;20.65;;;-0.60;99.90;;;;;;4944289;28;20500;-52
2022/03/04 06:28:38;;;;;;;38.72;19.88;;;-0.60;99.90;;;;;;4940870;28;20043;-52
2022/03/04 06:31:04;;;;;;;36.17;19.67;;;-0.60;99.90;;;;;;4921496;28;20592;-48
2022/03/04 06:33:30;;;;;;;38.35;20.02;;;-0.60;99.90;;;;;;4943687;28;20427;-52
2022/03/04 06:35:59;;;;;;;42.15;20.42;;;-0.70;99.90;;;;;;4945145;28;20054;-53
2022/03/04 06:38:24;;;;;;;38.05;20.40;;;-0.70;99.90;;;;;;4934991;28;20118;-50
2022/03/04 06:40:51;;;;;;;39.95;20.30;;;-0.60;99.90;;;;;;4943995;28;20043;-50
2022/03/04 06:43:18;;;;;;;42.22;20.77;;;-0.60;99.90;;;;;;4941807;28;20043;-50
2022/03/04 06:45:45;;;;;;;43.25;21.92;;;-0.60;99.90;;;;;;4943162;28;20118;-53
2022/03/04 06:48:13;;;;;;;38.08;20.45;;;-0.60;99.90;;;;;;4941889;28;20074;-49
2022/03/04 06:50:39;;;;;;;39.85;20.08;;;-0.50;99.90;;;;;;4942246;28;20051;-51
2022/03/04 06:53:05;;;;;;;37.83;19.85;;;-0.50;99.90;;;;;;4925091;28;20058;-55
2022/03/04 06:55:32;;;;;;;38.90;20.63;;;-0.50;99.90;;;;;;4936477;28;20477;-49
2022/03/04 06:57:58;;;;;;;38.25;20.42;;;-0.50;99.90;;;;;;4945125;28;20562;-49
2022/03/04 07:00:25;;;;;;;36.80;19.58;;;-0.50;99.90;;;;;;4947768;28;20047;-52
2022/03/04 07:02:51;;;;;;;36.70;19.00;;;-0.50;99.90;;;;;;4944550;28;20139;-51
2022/03/04 07:05:20;;;;;;;43.00;20.05;;;-0.50;99.90;;;;;;4947133;28;20039;-53
2022/03/04 07:07:46;;;;;;;37.67;19.48;;;-0.50;99.90;;;;;;4944187;28;20050;-50
2022/03/04 07:10:12;;;;;;;39.38;20.10;;;-0.50;99.90;;;;;;4946160;28;20051;-51
2022/03/04 07:12:38;;;;;;;42.55;20.55;;;-0.50;99.90;;;;;;4946870;28;20059;-49
2022/03/04 07:15:04;;;;;;;39.05;20.27;;;-0.50;99.90;;;;;;4945385;28;20043;-53
2022/03/04 07:17:30;;;;;;;36.22;19.20;;;-0.50;99.90;;;;;;4950453;28;20049;-52
2022/03/04 07:19:56;;;;;;;39.70;20.20;;;-0.50;99.90;;;;;;4949309;28;20460;-49
2022/03/04 07:22:22;;;;;;;39.50;19.98;;;-0.50;99.90;;;;;;4946980;28;20043;-51
2022/03/04 07:24:48;;;;;;;41.78;20.45;;;-0.50;99.90;;;;;;4946693;28;20047;-49
2022/03/04 07:27:13;;;;;;;40.75;20.42;;;-0.40;99.90;;;;;;4948375;28;20047;-53
2022/03/04 07:29:39;;;;;;;37.70;20.95;;;-0.40;99.90;;;;;;4940302;28;20056;-50
2022/03/04 07:32:05;;;;;;;43.97;21.00;;;-0.40;99.90;;;;;;4928439;28;20110;-49
2022/03/04 07:34:31;;;;;;;37.55;19.75;;;-0.30;99.90;;;;;;4940601;28;20138;-53
2022/03/04 07:36:57;;;;;;;38.15;19.83;;;-0.30;99.90;;;;;;4943866;28;20047;-50
2022/03/04 07:39:23;;;;;;;43.60;21.55;;;-0.20;99.90;;;;;;4943340;28;20047;-50
2022/03/04 07:41:50;;;;;;;35.83;19.95;;;-0.20;99.90;;;;;;4942849;28;20058;-50
2022/03/04 07:44:16;;;;;;;34.20;19.25;;;-0.10;99.90;;;;;;4948077;28;20039;-51
2022/03/04 07:46:42;;;;;;;39.58;20.83;;;-0.10;99.90;;;;;;4945332;28;20047;-52
2022/03/04 07:49:08;;;;;;;37.72;20.65;;;0.00;99.90;;;;;;4946313;28;21058;-50
2022/03/04 07:51:34;;;;;;;39.63;20.65;;;0.00;99.90;;;;;;4942594;28;20055;-51
2022/03/04 07:54:00;;;;;;;40.25;20.80;;;0.00;99.90;;;;;;4933610;28;20047;-52
2022/03/04 07:56:26;;;;;;;40.30;20.95;;;0.00;99.90;;;;;;4939041;28;20055;-56
2022/03/04 07:58:52;;;;;;;34.15;19.50;;;0.00;99.90;;;;;;4942543;28;20059;-54
2022/03/04 08:01:18;;;;;;;46.45;19.88;;;0.00;99.90;;;;;;4943799;28;20566;-51
2022/03/04 08:03:45;;;;;;;41.58;20.63;;;0.10;99.90;;;;;;4942051;28;20059;-50
2022/03/04 08:06:11;;;;;;;34.38;20.05;;;0.10;99.90;;;;;;4938114;28;20051;-55
2022/03/04 08:08:36;;;;;;;37.08;20.17;;;0.20;99.90;;;;;;4942324;28;20520;-53
2022/03/04 08:11:02;;;;;;;41.50;21.33;;;0.20;99.90;;;;;;4944802;28;20110;-53
2022/03/04 08:13:28;;;;;;;36.92;20.20;;;0.20;99.90;;;;;;4944577;28;20039;-60
2022/03/04 08:15:54;;;;;;;39.15;20.80;;;0.30;99.90;;;;;;4943070;28;20046;-58
2022/03/04 08:18:20;;;;;;;36.05;20.05;;;0.40;99.90;;;;;;4946388;28;20070;-57
2022/03/04 08:20:46;;;;;;;36.00;20.30;;;0.40;99.90;;;;;;4945441;28;20514;-59
2022/03/04 08:23:11;;;;;;;37.67;20.38;;;0.40;99.90;;;;;;4944686;28;20061;-58
2022/03/04 08:25:38;;;;;;;34.42;19.15;;;0.50;99.90;;;;;;4944680;28;20051;-59
2022/03/04 08:28:05;;;;;;;39.28;20.52;;;0.50;99.90;;;;;;4942190;28;20047;-58
2022/03/04 08:30:30;;;;;;;38.22;20.15;;;0.50;99.90;;;;;;4942075;28;20051;-58
2022/03/04 08:32:56;;;;;;;35.88;19.17;;;0.60;99.90;;;;;;4940002;28;20043;-58
2022/03/04 08:35:22;;;;;;;44.15;20.52;;;0.70;99.90;;;;;;4941890;28;20047;-58
2022/03/04 08:37:48;;;;;;;36.38;19.45;;;0.80;99.90;;;;;;4943675;28;20058;-58
2022/03/04 08:40:14;;;;;;;32.03;19.33;;;0.80;99.90;;;;;;4943658;28;20485;-59
2022/03/04 08:42:41;;;;;;;31.35;19.10;;;0.80;99.90;;;;;;4937807;28;20062;-56
2022/03/04 08:45:08;;;;;;;33.25;19.27;;;0.80;99.90;;;;;;4940293;28;20047;-58
2022/03/04 08:47:34;;;;;;;32.95;18.67;;;0.80;99.90;;;;;;4925549;28;20446;-59
2022/03/04 08:50:00;;;;;;;33.05;19.08;;;0.80;99.90;;;;;;4941822;28;20118;-59
2022/03/04 08:52:26;;;;;;;32.45;18.42;;;0.90;99.90;;;;;;4942808;28;20059;-59
2022/03/04 08:54:52;;;;;;;31.58;18.00;;;0.90;99.90;;;;;;4941813;28;20450;-58
2022/03/04 08:57:19;;;;;;;34.63;19.88;;;0.90;99.90;;;;;;4941544;28;20099;-57
2022/03/04 08:59:45;;;;;;;35.40;20.08;;;0.90;99.90;;;;;;4938131;28;20051;-58
2022/03/04 09:02:11;;;;;;;35.33;20.85;;;0.90;99.90;;;;;;4937682;28;20043;-57
2022/03/04 09:04:37;;;;;;;32.65;18.67;;;1.00;99.90;;;;;;4931664;28;20525;-57
2022/03/04 09:07:06;;;;;;;33.90;20.17;;;1.10;99.90;;;;;;4943507;28;20089;-58
2022/03/04 09:09:33;;;;;;;31.48;18.48;;;1.20;99.90;;;;;;4942850;28;20410;-58
2022/03/04 09:11:59;;;;;;;31.13;18.55;;;1.30;99.90;;;;;;4944193;28;20124;-59
2022/03/04 09:14:25;;;;;;;35.30;19.85;;;1.50;99.90;;;;;;4941085;28;20085;-58
2022/03/04 09:16:52;;;;;;;34.28;19.63;;;1.60;99.90;;;;;;4939018;28;20078;-56
2022/03/04 09:19:19;;;;;;;35.17;19.75;;;1.80;99.90;;;;;;4941929;28;20125;-58
2022/03/04 09:21:47;;;;;;;31.10;18.70;;;1.80;99.90;;;;;;4943680;28;20068;-60
2022/03/04 09:24:14;;;;;;;32.03;18.60;;;1.90;99.90;;;;;;4941934;28;20066;-59
2022/03/04 09:26:40;;;;;;;31.48;18.35;;;1.90;99.90;;;;;;4944785;28;20412;-59
2022/03/04 09:29:06;;;;;;;33.60;18.92;;;1.90;99.90;;;;;;4940030;28;20524;-57
2022/03/04 09:31:32;;;;;;;31.85;18.90;;;2.00;99.90;;;;;;4941548;28;20094;-59
2022/03/04 09:33:58;;;;;;;33.05;18.60;;;2.10;99.90;;;;;;4940273;28;20185;-60
2022/03/04 09:36:24;;;;;;;33.78;19.50;;;2.30;99.90;;;;;;4945181;28;20138;-59
2022/03/04 09:38:50;;;;;;;31.58;19.33;;;2.50;99.90;;;;;;4938452;28;20043;-55
2022/03/04 09:41:16;;;;;;;31.58;18.10;;;2.50;99.90;;;;;;4936820;28;20157;-58
2022/03/04 09:43:42;;;;;;;31.00;17.63;;;2.70;99.90;;;;;;4939698;28;20868;-57
2022/03/04 09:46:08;;;;;;;27.83;17.52;;;2.80;99.90;;;;;;4939427;28;20071;-60
2022/03/04 09:48:40;;;;;;;29.83;18.08;;;3.00;99.90;;;;;;4941354;28;20158;-59
2022/03/04 09:51:10;;;;;;;26.67;17.30;;;3.00;99.90;;;;;;4941415;28;20054;-56
2022/03/04 09:53:36;;;;;;;27.20;17.50;;;3.20;99.90;;;;;;4940243;28;20059;-60
2022/03/04 09:56:02;;;;;;;32.45;19.48;;;3.20;99.90;;;;;;4939812;28;20087;-58
2022/03/04 09:58:28;;;;;;;29.42;17.42;;;3.30;99.90;;;;;;4940546;28;20055;-56
2022/03/04 10:00:54;;;;;;;27.73;17.88;;;3.50;99.90;;;;;;4942737;28;20122;-59
2022/03/04 10:03:39;;;;;;;28.58;18.15;;;3.60;99.90;;;;;;4937555;28;20047;-59
2022/03/04 10:06:06;;;;;;;28.75;17.95;;;3.80;99.90;;;;;;4943485;28;20047;-57
2022/03/04 10:08:43;;;;;;;26.88;17.55;;;3.90;99.90;;;;;;4941696;28;20405;-59
2022/03/04 10:11:11;;;;;;;27.38;17.25;;;4.10;99.90;;;;;;4941753;28;20055;-59
2022/03/04 10:13:51;;;;;;;25.20;17.05;;;4.30;99.90;;;;;;4939045;28;20452;-58
2022/03/04 10:16:29;;;;;;;29.05;17.60;;;4.50;99.90;;;;;;4941050;28;20082;-59
2022/03/04 10:19:13;;;;;;;23.33;15.93;;;4.60;99.90;;;;;;4941192;28;20075;-59
2022/03/04 10:21:58;;;;;;;25.85;16.30;;;4.80;99.90;;;;;;4941964;28;20630;-59
2022/03/04 10:24:39;;;;;;;24.85;15.73;;;4.90;99.90;;;;;;4940675;28;20109;-59
2022/03/04 10:27:07;;;;;;;26.35;16.05;;;5.00;99.90;;;;;;4944164;29;20051;-57
2022/03/04 10:29:38;;;;;;;22.80;16.02;;;5.00;99.90;;;;;;4941043;28;20070;-59
2022/03/04 10:32:15;;;;;;;22.88;15.25;;;5.10;99.90;;;;;;4938641;28;20065;-59
2022/03/04 10:34:54;;;;;;;22.10;14.00;;;5.20;99.90;;;;;;4939503;28;20046;-59
2022/03/04 10:37:41;;;;;;;22.63;14.98;;;5.30;99.90;;;;;;4941336;28;20049;-59
2022/03/04 10:40:26;;;;;;;26.08;15.40;;;5.40;99.90;;;;;;4940942;28;20043;-56
2022/03/04 10:42:59;;;;;;;22.00;14.02;;;5.60;99.90;;;;;;4942004;28;20585;-58
2022/03/04 10:45:26;;;;;;;22.77;14.82;;;5.70;99.90;;;;;;4942238;28;20062;-59
2022/03/04 10:48:19;;;;;;;22.80;14.43;;;5.80;99.90;;;;;;4940570;28;20054;-59
2022/03/04 10:50:49;;;;;;;20.67;14.13;;;5.90;99.90;;;;;;4938275;28;20051;-58
2022/03/04 10:53:27;;;;;;;20.40;13.45;;;6.10;99.90;;;;;;4939102;28;20085;-58
2022/03/04 10:56:04;;;;;;;18.55;13.27;;;6.20;99.90;;;;;;4940472;28;20093;-58
2022/03/04 10:58:34;;;;;;;24.27;14.07;;;6.30;99.90;;;;;;4942439;28;20054;-59
2022/03/04 11:01:12;;;;;;;23.35;14.65;;;6.50;99.90;;;;;;4942768;29;20051;-58
2022/03/04 11:03:40;;;;;;;19.90;13.07;;;6.60;99.90;;;;;;4936432;28;20044;-57
2022/03/04 11:06:14;;;;;;;20.08;13.50;;;6.70;99.90;;;;;;4941063;28;20480;-58
2022/03/04 11:08:42;;;;;;;21.77;13.90;;;6.90;99.90;;;;;;4940036;28;20048;-57
2022/03/04 11:11:09;;;;;;;20.27;13.65;;;7.00;99.90;;;;;;4940512;28;20121;-59
2022/03/04 11:13:35;;;;;;;19.42;12.77;;;7.20;99.90;;;;;;4945068;28;20047;-59
2022/03/04 11:16:03;;;;;;;19.20;13.32;;;7.30;99.90;;;;;;4938285;28;20114;-59
2022/03/04 11:18:29;;;;;;;18.50;13.10;;;7.60;99.90;;;;;;4937030;28;20062;-59
2022/03/04 11:20:56;;;;;;;18.80;13.18;;;7.70;99.90;;;;;;4937812;28;20055;-57
2022/03/04 11:23:28;;;;;;;20.95;14.30;;;7.90;99.90;;;;;;4938988;28;20051;-59
2022/03/04 11:26:02;;;;;;;19.25;13.25;;;7.90;99.90;;;;;;4940387;28;20082;-59
2022/03/04 11:28:39;;;;;;;18.70;13.02;;;8.10;99.90;;;;;;4935442;28;20822;-59
2022/03/04 11:31:07;;;;;;;19.05;13.07;;;8.20;99.60;;;;;;4933985;28;20063;-59
2022/03/04 11:33:36;;;;;;;19.92;12.52;;;8.30;99.40;;;;;;4938638;28;20046;-57
2022/03/04 11:36:15;;;;;;;20.05;13.55;;;8.50;99.30;;;;;;4940672;28;20062;-59
2022/03/04 11:38:47;;;;;;;20.30;13.75;;;8.70;98.70;;;;;;4939044;28;20485;-60
2022/03/04 11:41:24;;;;;;;18.13;13.05;;;8.90;98.80;;;;;;4944182;28;20421;-57
2022/03/04 11:43:59;;;;;;;19.40;12.60;;;9.10;97.90;;;;;;4940463;28;20138;-59
2022/03/04 11:46:27;;;;;;;17.90;12.77;;;9.20;96.80;;;;;;4942785;28;20127;-59
2022/03/04 11:49:30;;;;;;;17.20;11.70;;;9.30;97.00;;;;;;4942115;28;20050;-58
2022/03/04 11:52:10;;;;;;;18.58;12.50;;;9.40;96.50;;;;;;4906936;28;20048;-59
2022/03/04 11:54:57;;;;;;;21.50;12.30;;;9.40;94.20;;;;;;4941325;28;20051;-57
2022/03/04 11:57:27;;;;;;;18.27;12.43;;;9.40;94.20;;;;;;4944060;28;20051;-59
2022/03/04 12:00:00;;;;;;;18.02;12.15;;;9.60;94.10;;;;;;4953115;28;20047;-59
2022/03/04 12:02:27;;;;;;;20.95;13.27;;;9.60;92.60;;;;;;4935400;28;20043;-58
2022/03/04 12:05:14;;;;;;;17.83;12.32;;;9.70;92.10;;;;;;4940243;28;20047;-58
2022/03/04 12:07:51;;;;;;;19.02;12.90;;;9.70;90.70;;;;;;4942063;28;20496;-59
2022/03/04 12:10:21;;;;;;;20.90;12.90;;;9.80;90.40;;;;;;4952274;28;20043;-59
2022/03/04 12:13:05;;;;;;;17.50;12.20;;;9.80;89.90;;;;;;4938701;28;20043;-59
2022/03/04 12:15:38;;;;;;;17.88;13.02;;;9.80;87.20;;;;;;4939806;28;20087;-59
2022/03/04 12:18:07;;;;;;;19.70;13.10;;;9.80;85.00;;;;;;4939354;28;20417;-57
2022/03/04 12:20:39;;;;;;;21.55;13.02;;;9.70;86.10;;;;;;4939447;28;20147;-60
2022/03/04 12:23:16;;;;;;;22.52;13.40;;;9.90;87.90;;;;;;4939262;28;20055;-59
2022/03/04 12:25:57;;;;;;;18.60;13.00;;;10.10;87.30;;;;;;4942225;28;20059;-59
2022/03/04 12:28:44;;;;;;;19.80;14.13;;;10.30;85.70;;;;;;4940025;28;20051;-59
2022/03/04 12:31:13;;;;;;;21.17;13.98;;;10.40;85.20;;;;;;4941577;28;20797;-59
2022/03/04 12:33:41;;;;;;;21.73;13.50;;;10.60;84.50;;;;;;4940790;28;20525;-59
2022/03/04 12:36:10;;;;;;;20.45;13.65;;;10.70;83.10;;;;;;4943475;28;20086;-59